Kermit, West Virginia
Current Conditions -  °F | °C
As of 12:55 AM on Friday 28 Nov 2014 (Local Time) from KSJS Reporting Station
Light Snow Light Snow  
Wind Chill: 29°   Ceiling: 2100
Heat Index: 29°   Visibility: 7mi
Dew Point: 27°   Wind: 0mph
Humidity: 90%   Direction: NA
Pressure: 30.34"   Gusts: NA
Location:  37.84°N, 82.41°W
Report Text: KSJS 280555Z AUTO 00000KT 7SM -SN SCT017 BKN021 OVC050 M01/M03 A3034 RMK AO2 T10151030 11006 21017
Loading
Personal Weather Stations






























Interactive Weather Map New forecast layout! Learn more

10-Day Weather Forecast

Advertisements
Track Severe Weather on mobile